sensor_id;sensor_type;location;lat;lon;timestamp;temperature;humidity
13049;DHT22;6591;51.446;5.404;2023-04-16T00:02:07;10.70;99.90
13049;DHT22;6591;51.446;5.404;2023-04-16T00:04:34;9.90;99.90
13049;DHT22;6591;51.446;5.404;2023-04-16T00:08:15;9.90;99.90
13049;DHT22;6591;51.446;5.404;2023-04-16T00:10:43;9.90;99.90
13049;DHT22;6591;51.446;5.404;2023-04-16T00:13:10;9.90;99.90
13049;DHT22;6591;51.446;5.404;2023-04-16T00:15:37;9.90;99.90
13049;DHT22;6591;51.446;5.404;2023-04-16T00:18:04;9.90;99.90
13049;DHT22;6591;51.446;5.404;2023-04-16T00:20:31;9.90;99.90
13049;DHT22;6591;51.446;5.404;2023-04-16T00:22:58;9.90;99.90
13049;DHT22;6591;51.446;5.404;2023-04-16T00:25:25;9.90;99.90
13049;DHT22;6591;51.446;5.404;2023-04-16T00:27:52;11.00;99.90
13049;DHT22;6591;51.446;5.404;2023-04-16T00:30:19;9.90;99.90
13049;DHT22;6591;51.446;5.404;2023-04-16T00:32:46;12.00;99.90
13049;DHT22;6591;51.446;5.404;2023-04-16T00:35:13;11.90;99.90
13049;DHT22;6591;51.446;5.404;2023-04-16T00:37:40;9.90;99.90
13049;DHT22;6591;51.446;5.404;2023-04-16T00:40:07;10.00;99.90
13049;DHT22;6591;51.446;5.404;2023-04-16T00:42:35;10.00;99.90
13049;DHT22;6591;51.446;5.404;2023-04-16T00:45:04;10.00;99.90
13049;DHT22;6591;51.446;5.404;2023-04-16T00:47:32;10.00;99.90
13049;DHT22;6591;51.446;5.404;2023-04-16T00:49:59;9.90;99.90
13049;DHT22;6591;51.446;5.404;2023-04-16T00:52:29;10.20;99.90
13049;DHT22;6591;51.446;5.404;2023-04-16T00:54:58;11.90;99.90
13049;DHT22;6591;51.446;5.404;2023-04-16T00:57:26;11.90;99.90
13049;DHT22;6591;51.446;5.404;2023-04-16T00:59:53;10.10;99.90
13049;DHT22;6591;51.446;5.404;2023-04-16T01:02:21;10.10;99.90
13049;DHT22;6591;51.446;5.404;2023-04-16T01:04:50;10.10;99.90
13049;DHT22;6591;51.446;5.404;2023-04-16T01:07:17;13.10;99.90
13049;DHT22;6591;51.446;5.404;2023-04-16T01:09:44;8.40;99.90
13049;DHT22;6591;51.446;5.404;2023-04-16T01:12:12;10.20;99.90
13049;DHT22;6591;51.446;5.404;2023-04-16T01:14:39;11.90;99.90
13049;DHT22;6591;51.446;5.404;2023-04-16T01:17:06;10.20;99.90
13049;DHT22;6591;51.446;5.404;2023-04-16T01:19:33;10.40;99.90
13049;DHT22;6591;51.446;5.404;2023-04-16T01:22:04;10.20;99.90
13049;DHT22;6591;51.446;5.404;2023-04-16T01:24:31;12.50;99.90
13049;DHT22;6591;51.446;5.404;2023-04-16T01:26:59;10.20;99.90
13049;DHT22;6591;51.446;5.404;2023-04-16T01:29:27;11.30;99.90
13049;DHT22;6591;51.446;5.404;2023-04-16T01:31:56;8.80;99.90
13049;DHT22;6591;51.446;5.404;2023-04-16T01:34:42;10.30;99.90
13049;DHT22;6591;51.446;5.404;2023-04-16T01:37:09;10.30;99.90
13049;DHT22;6591;51.446;5.404;2023-04-16T01:39:36;11.50;99.90
13049;DHT22;6591;51.446;5.404;2023-04-16T01:42:04;10.30;99.90
13049;DHT22;6591;51.446;5.404;2023-04-16T01:44:32;10.30;99.90
13049;DHT22;6591;51.446;5.404;2023-04-16T01:46:59;10.30;99.90
13049;DHT22;6591;51.446;5.404;2023-04-16T01:49:27;10.30;99.90
13049;DHT22;6591;51.446;5.404;2023-04-16T01:51:55;10.40;99.90
13049;DHT22;6591;51.446;5.404;2023-04-16T01:54:22;10.30;99.90
13049;DHT22;6591;51.446;5.404;2023-04-16T01:56:49;10.30;99.90
13049;DHT22;6591;51.446;5.404;2023-04-16T01:59:16;10.30;99.90
13049;DHT22;6591;51.446;5.404;2023-04-16T02:01:45;12.50;99.90
13049;DHT22;6591;51.446;5.404;2023-04-16T02:04:12;12.50;99.90
13049;DHT22;6591;51.446;5.404;2023-04-16T02:06:40;11.40;99.90
13049;DHT22;6591;51.446;5.404;2023-04-16T02:09:07;10.30;99.90
13049;DHT22;6591;51.446;5.404;2023-04-16T02:11:36;10.30;99.90
13049;DHT22;6591;51.446;5.404;2023-04-16T02:14:03;10.30;99.90
13049;DHT22;6591;51.446;5.404;2023-04-16T02:16:30;11.80;99.90
13049;DHT22;6591;51.446;5.404;2023-04-16T02:19:18;8.60;99.90
13049;DHT22;6591;51.446;5.404;2023-04-16T02:21:45;12.70;99.90
13049;DHT22;6591;51.446;5.404;2023-04-16T02:24:12;10.50;99.90
13049;DHT22;6591;51.446;5.404;2023-04-16T02:26:40;10.40;99.90
13049;DHT22;6591;51.446;5.404;2023-04-16T02:29:13;10.40;99.90
13049;DHT22;6591;51.446;5.404;2023-04-16T02:31:44;10.40;99.90
13049;DHT22;6591;51.446;5.404;2023-04-16T02:34:13;10.80;99.90
13049;DHT22;6591;51.446;5.404;2023-04-16T02:36:41;10.40;99.90
13049;DHT22;6591;51.446;5.404;2023-04-16T02:39:08;10.50;99.90
13049;DHT22;6591;51.446;5.404;2023-04-16T02:41:35;10.50;99.90
13049;DHT22;6591;51.446;5.404;2023-04-16T02:44:04;12.10;99.90
13049;DHT22;6591;51.446;5.404;2023-04-16T02:46:31;10.50;99.90
13049;DHT22;6591;51.446;5.404;2023-04-16T02:48:58;11.70;99.90
13049;DHT22;6591;51.446;5.404;2023-04-16T02:51:25;10.50;99.90
13049;DHT22;6591;51.446;5.404;2023-04-16T02:53:53;12.10;99.90
13049;DHT22;6591;51.446;5.404;2023-04-16T02:56:20;12.80;99.90
13049;DHT22;6591;51.446;5.404;2023-04-16T02:58:47;10.60;99.90
13049;DHT22;6591;51.446;5.404;2023-04-16T03:01:14;10.90;99.90
13049;DHT22;6591;51.446;5.404;2023-04-16T03:03:41;10.60;99.90
13049;DHT22;6591;51.446;5.404;2023-04-16T03:06:08;10.60;99.90
13049;DHT22;6591;51.446;5.404;2023-04-16T03:08:35;10.80;99.90
13049;DHT22;6591;51.446;5.404;2023-04-16T03:11:02;12.10;99.90
13049;DHT22;6591;51.446;5.404;2023-04-16T03:13:29;10.60;99.90
13049;DHT22;6591;51.446;5.404;2023-04-16T03:15:56;11.80;99.90
13049;DHT22;6591;51.446;5.404;2023-04-16T03:18:23;10.60;99.90
13049;DHT22;6591;51.446;5.404;2023-04-16T03:20:51;10.60;99.90
13049;DHT22;6591;51.446;5.404;2023-04-16T03:23:19;10.70;99.90
13049;DHT22;6591;51.446;5.404;2023-04-16T03:25:46;10.80;99.90
13049;DHT22;6591;51.446;5.404;2023-04-16T03:28:16;10.70;99.90
13049;DHT22;6591;51.446;5.404;2023-04-16T03:30:49;11.10;99.90
13049;DHT22;6591;51.446;5.404;2023-04-16T03:33:19;10.70;99.90
13049;DHT22;6591;51.446;5.404;2023-04-16T03:35:54;10.70;99.90
13049;DHT22;6591;51.446;5.404;2023-04-16T03:38:24;10.70;99.90
13049;DHT22;6591;51.446;5.404;2023-04-16T03:40:55;12.70;99.90
13049;DHT22;6591;51.446;5.404;2023-04-16T03:43:23;10.60;99.90
13049;DHT22;6591;51.446;5.404;2023-04-16T03:45:50;13.00;99.90
13049;DHT22;6591;51.446;5.404;2023-04-16T03:48:20;11.90;99.90
13049;DHT22;6591;51.446;5.404;2023-04-16T03:50:47;12.30;99.90
13049;DHT22;6591;51.446;5.404;2023-04-16T03:53:16;12.60;99.90
13049;DHT22;6591;51.446;5.404;2023-04-16T03:55:49;10.70;99.90
13049;DHT22;6591;51.446;5.404;2023-04-16T03:58:18;12.70;99.90
13049;DHT22;6591;51.446;5.404;2023-04-16T04:00:46;10.70;99.90
13049;DHT22;6591;51.446;5.404;2023-04-16T04:03:15;10.70;99.90
13049;DHT22;6591;51.446;5.404;2023-04-16T04:05:45;12.40;99.90
13049;DHT22;6591;51.446;5.404;2023-04-16T04:08:16;8.80;99.90
13049;DHT22;6591;51.446;5.404;2023-04-16T04:10:46;12.80;99.90
13049;DHT22;6591;51.446;5.404;2023-04-16T04:13:13;12.50;99.90
13049;DHT22;6591;51.446;5.404;2023-04-16T04:15:41;11.70;99.90
13049;DHT22;6591;51.446;5.404;2023-04-16T04:18:09;10.60;99.90
13049;DHT22;6591;51.446;5.404;2023-04-16T04:20:40;10.70;99.90
13049;DHT22;6591;51.446;5.404;2023-04-16T04:23:07;12.20;99.90
13049;DHT22;6591;51.446;5.404;2023-04-16T04:25:34;12.80;99.90
13049;DHT22;6591;51.446;5.404;2023-04-16T04:28:02;10.70;99.90
13049;DHT22;6591;51.446;5.404;2023-04-16T04:30:29;10.70;99.90
13049;DHT22;6591;51.446;5.404;2023-04-16T04:32:56;11.40;99.90
13049;DHT22;6591;51.446;5.404;2023-04-16T04:35:23;13.20;99.90
13049;DHT22;6591;51.446;5.404;2023-04-16T04:37:51;10.70;99.90
13049;DHT22;6591;51.446;5.404;2023-04-16T04:40:19;10.70;99.90
13049;DHT22;6591;51.446;5.404;2023-04-16T04:42:46;12.60;99.90
13049;DHT22;6591;51.446;5.404;2023-04-16T04:45:14;10.70;99.90
13049;DHT22;6591;51.446;5.404;2023-04-16T04:47:42;10.90;99.90
13049;DHT22;6591;51.446;5.404;2023-04-16T04:50:09;12.50;99.90
13049;DHT22;6591;51.446;5.404;2023-04-16T04:52:37;10.70;99.90
13049;DHT22;6591;51.446;5.404;2023-04-16T04:55:05;11.50;99.90
13049;DHT22;6591;51.446;5.404;2023-04-16T04:57:32;10.70;99.90
13049;DHT22;6591;51.446;5.404;2023-04-16T05:00:00;11.80;99.90
13049;DHT22;6591;51.446;5.404;2023-04-16T05:02:38;12.20;99.90
13049;DHT22;6591;51.446;5.404;2023-04-16T05:05:05;12.70;99.90
13049;DHT22;6591;51.446;5.404;2023-04-16T05:07:32;11.40;99.90
13049;DHT22;6591;51.446;5.404;2023-04-16T05:10:00;11.50;99.90
13049;DHT22;6591;51.446;5.404;2023-04-16T05:12:27;10.60;99.90
13049;DHT22;6591;51.446;5.404;2023-04-16T05:14:54;12.40;99.90
13049;DHT22;6591;51.446;5.404;2023-04-16T05:17:21;12.70;99.90
13049;DHT22;6591;51.446;5.404;2023-04-16T05:19:48;10.60;99.90
13049;DHT22;6591;51.446;5.404;2023-04-16T05:22:15;10.70;99.90
13049;DHT22;6591;51.446;5.404;2023-04-16T05:24:44;11.60;99.90
13049;DHT22;6591;51.446;5.404;2023-04-16T05:27:11;12.30;99.90
13049;DHT22;6591;51.446;5.404;2023-04-16T05:29:38;12.00;99.90
13049;DHT22;6591;51.446;5.404;2023-04-16T05:32:05;11.00;99.90
13049;DHT22;6591;51.446;5.404;2023-04-16T05:34:32;11.40;99.90
13049;DHT22;6591;51.446;5.404;2023-04-16T05:36:59;10.70;99.90
13049;DHT22;6591;51.446;5.404;2023-04-16T05:39:26;10.70;99.90
13049;DHT22;6591;51.446;5.404;2023-04-16T05:41:53;11.70;99.90
13049;DHT22;6591;51.446;5.404;2023-04-16T05:44:21;10.70;99.90
13049;DHT22;6591;51.446;5.404;2023-04-16T05:46:52;13.00;99.90
13049;DHT22;6591;51.446;5.404;2023-04-16T05:49:19;11.50;99.90
13049;DHT22;6591;51.446;5.404;2023-04-16T05:51:47;13.20;99.90
13049;DHT22;6591;51.446;5.404;2023-04-16T05:54:16;10.70;99.90
13049;DHT22;6591;51.446;5.404;2023-04-16T05:56:43;13.10;99.90
13049;DHT22;6591;51.446;5.404;2023-04-16T05:59:10;11.50;99.90
13049;DHT22;6591;51.446;5.404;2023-04-16T06:01:37;10.80;99.90
13049;DHT22;6591;51.446;5.404;2023-04-16T06:04:04;10.80;99.90
13049;DHT22;6591;51.446;5.404;2023-04-16T06:06:32;13.30;99.90
13049;DHT22;6591;51.446;5.404;2023-04-16T06:08:59;10.70;99.90
13049;DHT22;6591;51.446;5.404;2023-04-16T06:11:26;10.90;99.90
13049;DHT22;6591;51.446;5.404;2023-04-16T06:13:55;11.50;99.90
13049;DHT22;6591;51.446;5.404;2023-04-16T06:16:22;10.90;99.90
13049;DHT22;6591;51.446;5.404;2023-04-16T06:18:49;9.90;99.90
13049;DHT22;6591;51.446;5.404;2023-04-16T06:21:16;10.80;99.90
13049;DHT22;6591;51.446;5.404;2023-04-16T06:23:43;10.80;99.90
13049;DHT22;6591;51.446;5.404;2023-04-16T06:26:10;10.80;99.90
13049;DHT22;6591;51.446;5.404;2023-04-16T06:28:37;10.80;99.90
13049;DHT22;6591;51.446;5.404;2023-04-16T06:31:04;11.30;99.90
13049;DHT22;6591;51.446;5.404;2023-04-16T06:33:32;10.80;99.90
13049;DHT22;6591;51.446;5.404;2023-04-16T06:35:58;13.20;99.90
13049;DHT22;6591;51.446;5.404;2023-04-16T06:38:25;11.40;99.90
13049;DHT22;6591;51.446;5.404;2023-04-16T06:40:52;12.60;99.90
13049;DHT22;6591;51.446;5.404;2023-04-16T06:43:20;13.00;99.90
13049;DHT22;6591;51.446;5.404;2023-04-16T06:45:47;10.90;99.90
13049;DHT22;6591;51.446;5.404;2023-04-16T06:48:14;10.90;99.90
13049;DHT22;6591;51.446;5.404;2023-04-16T06:50:41;11.90;99.90
13049;DHT22;6591;51.446;5.404;2023-04-16T06:53:08;10.90;99.90
13049;DHT22;6591;51.446;5.404;2023-04-16T06:55:35;12.60;99.90
13049;DHT22;6591;51.446;5.404;2023-04-16T06:58:02;11.00;99.90
13049;DHT22;6591;51.446;5.404;2023-04-16T07:00:29;12.40;99.90
13049;DHT22;6591;51.446;5.404;2023-04-16T07:02:56;11.60;99.90
13049;DHT22;6591;51.446;5.404;2023-04-16T07:05:24;11.10;99.90
13049;DHT22;6591;51.446;5.404;2023-04-16T07:07:51;11.10;99.90
13049;DHT22;6591;51.446;5.404;2023-04-16T07:10:18;12.30;99.90
13049;DHT22;6591;51.446;5.404;2023-04-16T07:12:45;11.90;99.90
13049;DHT22;6591;51.446;5.404;2023-04-16T07:15:12;12.20;99.90
13049;DHT22;6591;51.446;5.404;2023-04-16T07:17:39;11.20;99.90
13049;DHT22;6591;51.446;5.404;2023-04-16T07:20:07;12.80;99.90
13049;DHT22;6591;51.446;5.404;2023-04-16T07:22:34;10.20;99.90
13049;DHT22;6591;51.446;5.404;2023-04-16T07:25:01;12.20;99.90
13049;DHT22;6591;51.446;5.404;2023-04-16T07:27:28;11.30;99.90
13049;DHT22;6591;51.446;5.404;2023-04-16T07:29:55;11.30;99.90
13049;DHT22;6591;51.446;5.404;2023-04-16T07:32:22;12.40;99.90
13049;DHT22;6591;51.446;5.404;2023-04-16T07:34:50;11.30;99.90
13049;DHT22;6591;51.446;5.404;2023-04-16T07:37:17;12.60;99.90
13049;DHT22;6591;51.446;5.404;2023-04-16T07:39:44;11.30;99.90
13049;DHT22;6591;51.446;5.404;2023-04-16T07:42:12;13.00;99.90
13049;DHT22;6591;51.446;5.404;2023-04-16T07:44:39;11.40;99.90
13049;DHT22;6591;51.446;5.404;2023-04-16T07:47:06;11.40;99.90
13049;DHT22;6591;51.446;5.404;2023-04-16T07:49:33;11.40;99.90
13049;DHT22;6591;51.446;5.404;2023-04-16T07:52:01;11.50;99.90
13049;DHT22;6591;51.446;5.404;2023-04-16T07:54:27;11.50;99.90
13049;DHT22;6591;51.446;5.404;2023-04-16T07:56:54;11.50;99.90
13049;DHT22;6591;51.446;5.404;2023-04-16T07:59:21;12.10;99.90
13049;DHT22;6591;51.446;5.404;2023-04-16T08:01:52;13.70;99.90
13049;DHT22;6591;51.446;5.404;2023-04-16T08:04:22;11.80;99.90
13049;DHT22;6591;51.446;5.404;2023-04-16T08:06:53;11.60;99.90
13049;DHT22;6591;51.446;5.404;2023-04-16T08:09:21;12.00;99.90
13049;DHT22;6591;51.446;5.404;2023-04-16T08:11:49;11.70;99.90
13049;DHT22;6591;51.446;5.404;2023-04-16T08:14:17;13.90;99.90
13049;DHT22;6591;51.446;5.404;2023-04-16T08:16:44;12.20;99.90
13049;DHT22;6591;51.446;5.404;2023-04-16T08:19:12;11.70;99.90
13049;DHT22;6591;51.446;5.404;2023-04-16T08:21:39;11.90;99.90
13049;DHT22;6591;51.446;5.404;2023-04-16T08:24:06;13.70;99.90
13049;DHT22;6591;51.446;5.404;2023-04-16T08:26:33;11.80;99.90
13049;DHT22;6591;51.446;5.404;2023-04-16T08:29:00;11.90;99.90
13049;DHT22;6591;51.446;5.404;2023-04-16T08:31:27;11.80;99.90
13049;DHT22;6591;51.446;5.404;2023-04-16T08:33:54;12.40;99.90
13049;DHT22;6591;51.446;5.404;2023-04-16T08:36:21;11.90;99.90
13049;DHT22;6591;51.446;5.404;2023-04-16T08:38:48;13.50;99.90
13049;DHT22;6591;51.446;5.404;2023-04-16T08:41:18;12.70;99.90
13049;DHT22;6591;51.446;5.404;2023-04-16T08:43:47;11.90;99.90
13049;DHT22;6591;51.446;5.404;2023-04-16T08:46:21;13.50;99.90
13049;DHT22;6591;51.446;5.404;2023-04-16T08:48:53;13.10;99.90
13049;DHT22;6591;51.446;5.404;2023-04-16T08:51:24;12.00;99.90
13049;DHT22;6591;51.446;5.404;2023-04-16T08:54:08;14.20;99.90
13049;DHT22;6591;51.446;5.404;2023-04-16T08:56:41;13.60;99.90
13049;DHT22;6591;51.446;5.404;2023-04-16T08:59:09;13.50;99.90
13049;DHT22;6591;51.446;5.404;2023-04-16T09:01:36;12.40;99.90
13049;DHT22;6591;51.446;5.404;2023-04-16T09:04:08;12.00;99.90
13049;DHT22;6591;51.446;5.404;2023-04-16T09:06:35;12.10;99.90
13049;DHT22;6591;51.446;5.404;2023-04-16T09:09:03;12.00;99.90
13049;DHT22;6591;51.446;5.404;2023-04-16T09:11:32;13.50;99.90
13049;DHT22;6591;51.446;5.404;2023-04-16T09:14:00;13.70;99.90
13049;DHT22;6591;51.446;5.404;2023-04-16T09:16:28;12.10;99.90
13049;DHT22;6591;51.446;5.404;2023-04-16T09:18:59;12.10;99.90
13049;DHT22;6591;51.446;5.404;2023-04-16T09:21:26;13.60;99.90
13049;DHT22;6591;51.446;5.404;2023-04-16T09:23:53;12.30;99.90
13049;DHT22;6591;51.446;5.404;2023-04-16T09:26:21;12.70;99.90
13049;DHT22;6591;51.446;5.404;2023-04-16T09:28:49;14.50;99.90
13049;DHT22;6591;51.446;5.404;2023-04-16T09:31:18;9.90;99.90
13049;DHT22;6591;51.446;5.404;2023-04-16T09:34:05;13.00;99.90
13049;DHT22;6591;51.446;5.404;2023-04-16T09:36:35;12.30;99.90
13049;DHT22;6591;51.446;5.404;2023-04-16T09:39:03;13.90;99.90
13049;DHT22;6591;51.446;5.404;2023-04-16T09:41:32;12.40;99.90
13049;DHT22;6591;51.446;5.404;2023-04-16T09:44:05;12.40;99.90
13049;DHT22;6591;51.446;5.404;2023-04-16T09:46:40;14.30;99.90
13049;DHT22;6591;51.446;5.404;2023-04-16T09:49:12;12.50;99.90
13049;DHT22;6591;51.446;5.404;2023-04-16T09:51:42;12.50;99.90
13049;DHT22;6591;51.446;5.404;2023-04-16T09:54:10;12.60;99.90
13049;DHT22;6591;51.446;5.404;2023-04-16T09:56:40;12.50;99.90
13049;DHT22;6591;51.446;5.404;2023-04-16T09:59:27;12.60;99.90
13049;DHT22;6591;51.446;5.404;2023-04-16T10:01:59;12.60;99.90
13049;DHT22;6591;51.446;5.404;2023-04-16T10:04:48;12.90;99.90
13049;DHT22;6591;51.446;5.404;2023-04-16T10:07:17;12.70;99.90
13049;DHT22;6591;51.446;5.404;2023-04-16T10:09:47;12.70;99.90
13049;DHT22;6591;51.446;5.404;2023-04-16T10:12:15;12.70;99.90
13049;DHT22;6591;51.446;5.404;2023-04-16T10:14:42;12.70;99.90
13049;DHT22;6591;51.446;5.404;2023-04-16T10:17:10;13.40;99.90
13049;DHT22;6591;51.446;5.404;2023-04-16T10:19:37;12.70;99.90
13049;DHT22;6591;51.446;5.404;2023-04-16T10:22:05;13.00;99.90
13049;DHT22;6591;51.446;5.404;2023-04-16T10:24:33;13.00;99.90
13049;DHT22;6591;51.446;5.404;2023-04-16T10:27:01;12.70;99.90
13049;DHT22;6591;51.446;5.404;2023-04-16T10:29:29;12.80;99.90
13049;DHT22;6591;51.446;5.404;2023-04-16T10:31:57;12.70;99.90
13049;DHT22;6591;51.446;5.404;2023-04-16T10:34:25;12.70;99.90
13049;DHT22;6591;51.446;5.404;2023-04-16T10:36:55;12.70;99.90
13049;DHT22;6591;51.446;5.404;2023-04-16T10:39:23;12.70;99.90
13049;DHT22;6591;51.446;5.404;2023-04-16T10:42:11;12.70;99.90
13049;DHT22;6591;51.446;5.404;2023-04-16T10:44:39;12.70;99.90
13049;DHT22;6591;51.446;5.404;2023-04-16T10:47:12;12.70;99.90
13049;DHT22;6591;51.446;5.404;2023-04-16T10:49:40;12.70;99.90
13049;DHT22;6591;51.446;5.404;2023-04-16T10:52:13;12.50;99.90
13049;DHT22;6591;51.446;5.404;2023-04-16T10:54:43;12.70;99.90
13049;DHT22;6591;51.446;5.404;2023-04-16T10:57:14;12.70;99.90
13049;DHT22;6591;51.446;5.404;2023-04-16T10:59:44;12.70;99.90
13049;DHT22;6591;51.446;5.404;2023-04-16T11:02:15;14.00;99.90
13049;DHT22;6591;51.446;5.404;2023-04-16T11:04:46;12.60;99.90
13049;DHT22;6591;51.446;5.404;2023-04-16T11:07:18;12.60;99.90
13049;DHT22;6591;51.446;5.404;2023-04-16T11:09:56;12.50;99.90
13049;DHT22;6591;51.446;5.404;2023-04-16T11:15:07;12.50;99.90
13049;DHT22;6591;51.446;5.404;2023-04-16T11:17:44;12.50;99.90
13049;DHT22;6591;51.446;5.404;2023-04-16T11:20:18;12.50;99.90
13049;DHT22;6591;51.446;5.404;2023-04-16T11:22:50;12.50;99.90
13049;DHT22;6591;51.446;5.404;2023-04-16T11:25:19;13.20;99.90
13049;DHT22;6591;51.446;5.404;2023-04-16T11:27:48;12.50;99.90
13049;DHT22;6591;51.446;5.404;2023-04-16T11:30:17;12.60;99.90
13049;DHT22;6591;51.446;5.404;2023-04-16T11:32:45;14.30;99.90
13049;DHT22;6591;51.446;5.404;2023-04-16T11:35:16;12.50;99.90
13049;DHT22;6591;51.446;5.404;2023-04-16T11:37:45;12.60;99.90
13049;DHT22;6591;51.446;5.404;2023-04-16T11:40:14;12.60;99.90
13049;DHT22;6591;51.446;5.404;2023-04-16T11:42:41;12.70;99.90
13049;DHT22;6591;51.446;5.404;2023-04-16T11:45:10;12.70;99.90
13049;DHT22;6591;51.446;5.404;2023-04-16T11:47:43;12.80;99.90
13049;DHT22;6591;51.446;5.404;2023-04-16T11:50:16;14.70;99.90
13049;DHT22;6591;51.446;5.404;2023-04-16T11:52:47;14.20;99.90
13049;DHT22;6591;51.446;5.404;2023-04-16T11:55:16;13.00;99.90
13049;DHT22;6591;51.446;5.404;2023-04-16T11:57:43;13.40;99.90
13049;DHT22;6591;51.446;5.404;2023-04-16T12:00:12;13.10;99.90
13049;DHT22;6591;51.446;5.404;2023-04-16T12:02:42;13.10;99.90
13049;DHT22;6591;51.446;5.404;2023-04-16T12:05:32;12.60;99.90
13049;DHT22;6591;51.446;5.404;2023-04-16T12:08:06;13.20;99.90
13049;DHT22;6591;51.446;5.404;2023-04-16T12:10:54;13.70;99.90
13049;DHT22;6591;51.446;5.404;2023-04-16T12:13:22;13.20;99.90
13049;DHT22;6591;51.446;5.404;2023-04-16T12:15:50;13.20;99.90
13049;DHT22;6591;51.446;5.404;2023-04-16T12:18:21;13.30;99.90
13049;DHT22;6591;51.446;5.404;2023-04-16T12:20:49;13.30;99.90
13049;DHT22;6591;51.446;5.404;2023-04-16T12:23:32;13.30;99.90
13049;DHT22;6591;51.446;5.404;2023-04-16T12:26:06;13.40;99.90
13049;DHT22;6591;51.446;5.404;2023-04-16T12:28:36;13.30;99.90
13049;DHT22;6591;51.446;5.404;2023-04-16T12:31:05;13.20;99.90
13049;DHT22;6591;51.446;5.404;2023-04-16T12:33:32;13.20;99.90
13049;DHT22;6591;51.446;5.404;2023-04-16T12:35:59;13.20;99.90
13049;DHT22;6591;51.446;5.404;2023-04-16T12:38:28;13.20;99.90
13049;DHT22;6591;51.446;5.404;2023-04-16T12:40:55;14.30;99.90
13049;DHT22;6591;51.446;5.404;2023-04-16T12:43:23;13.20;99.90
13049;DHT22;6591;51.446;5.404;2023-04-16T12:45:51;13.20;99.90
13049;DHT22;6591;51.446;5.404;2023-04-16T12:48:18;13.20;99.90
13049;DHT22;6591;51.446;5.404;2023-04-16T12:50:45;13.20;99.90
13049;DHT22;6591;51.446;5.404;2023-04-16T12:53:12;13.30;99.90
13049;DHT22;6591;51.446;5.404;2023-04-16T12:55:39;13.40;99.90
13049;DHT22;6591;51.446;5.404;2023-04-16T12:58:07;13.40;99.90
13049;DHT22;6591;51.446;5.404;2023-04-16T13:00:38;13.50;99.90
13049;DHT22;6591;51.446;5.404;2023-04-16T13:03:06;13.50;99.90
13049;DHT22;6591;51.446;5.404;2023-04-16T13:05:33;13.90;99.90
13049;DHT22;6591;51.446;5.404;2023-04-16T13:08:00;13.60;99.90
13049;DHT22;6591;51.446;5.404;2023-04-16T13:10:27;14.10;99.90
13049;DHT22;6591;51.446;5.404;2023-04-16T13:12:54;15.70;99.90
13049;DHT22;6591;51.446;5.404;2023-04-16T13:15:21;14.00;99.90
13049;DHT22;6591;51.446;5.404;2023-04-16T13:17:48;15.40;99.90
13049;DHT22;6591;51.446;5.404;2023-04-16T13:20:15;15.70;99.90
13049;DHT22;6591;51.446;5.404;2023-04-16T13:22:42;14.30;99.90
13049;DHT22;6591;51.446;5.404;2023-04-16T13:25:10;14.40;99.90
13049;DHT22;6591;51.446;5.404;2023-04-16T13:27:37;14.50;99.90
13049;DHT22;6591;51.446;5.404;2023-04-16T13:30:05;14.50;99.90
13049;DHT22;6591;51.446;5.404;2023-04-16T13:32:33;14.50;99.90
13049;DHT22;6591;51.446;5.404;2023-04-16T13:35:03;14.60;99.90
13049;DHT22;6591;51.446;5.404;2023-04-16T13:37:31;14.60;99.90
13049;DHT22;6591;51.446;5.404;2023-04-16T13:39:58;15.30;99.90
13049;DHT22;6591;51.446;5.404;2023-04-16T13:42:25;14.80;99.90
13049;DHT22;6591;51.446;5.404;2023-04-16T13:44:52;14.60;99.90
13049;DHT22;6591;51.446;5.404;2023-04-16T13:47:20;15.90;99.90
13049;DHT22;6591;51.446;5.404;2023-04-16T13:49:48;14.60;99.90
13049;DHT22;6591;51.446;5.404;2023-04-16T13:52:15;14.90;99.90
13049;DHT22;6591;51.446;5.404;2023-04-16T13:54:42;14.50;99.90
13049;DHT22;6591;51.446;5.404;2023-04-16T13:57:18;14.70;99.90
13049;DHT22;6591;51.446;5.404;2023-04-16T13:59:46;14.50;99.90
13049;DHT22;6591;51.446;5.404;2023-04-16T14:02:13;14.50;99.90
13049;DHT22;6591;51.446;5.404;2023-04-16T14:04:40;14.50;99.90
13049;DHT22;6591;51.446;5.404;2023-04-16T14:07:07;14.50;99.90
13049;DHT22;6591;51.446;5.404;2023-04-16T14:09:34;14.50;99.90
13049;DHT22;6591;51.446;5.404;2023-04-16T14:12:02;14.60;99.90
13049;DHT22;6591;51.446;5.404;2023-04-16T14:14:29;14.60;99.90
13049;DHT22;6591;51.446;5.404;2023-04-16T14:16:57;16.10;99.90
13049;DHT22;6591;51.446;5.404;2023-04-16T14:19:24;14.60;99.90
13049;DHT22;6591;51.446;5.404;2023-04-16T14:21:51;14.60;99.90
13049;DHT22;6591;51.446;5.404;2023-04-16T14:24:18;14.60;99.90
13049;DHT22;6591;51.446;5.404;2023-04-16T14:26:45;15.00;99.90
13049;DHT22;6591;51.446;5.404;2023-04-16T14:29:12;15.90;99.90
13049;DHT22;6591;51.446;5.404;2023-04-16T14:31:39;15.00;99.90
13049;DHT22;6591;51.446;5.404;2023-04-16T14:34:07;15.10;99.90
13049;DHT22;6591;51.446;5.404;2023-04-16T14:36:35;15.30;99.90
13049;DHT22;6591;51.446;5.404;2023-04-16T14:39:02;16.40;99.90
13049;DHT22;6591;51.446;5.404;2023-04-16T14:41:30;15.50;99.90
13049;DHT22;6591;51.446;5.404;2023-04-16T14:43:58;17.40;99.90
13049;DHT22;6591;51.446;5.404;2023-04-16T14:46:25;15.70;99.90
13049;DHT22;6591;51.446;5.404;2023-04-16T14:48:52;15.70;99.90
13049;DHT22;6591;51.446;5.404;2023-04-16T14:51:19;15.70;99.90
13049;DHT22;6591;51.446;5.404;2023-04-16T14:53:46;15.70;99.90
13049;DHT22;6591;51.446;5.404;2023-04-16T14:56:13;15.70;99.90
13049;DHT22;6591;51.446;5.404;2023-04-16T14:58:40;15.90;99.90
13049;DHT22;6591;51.446;5.404;2023-04-16T15:01:09;15.60;99.90
13049;DHT22;6591;51.446;5.404;2023-04-16T15:03:36;15.60;99.90
13049;DHT22;6591;51.446;5.404;2023-04-16T15:06:03;15.70;99.90
13049;DHT22;6591;51.446;5.404;2023-04-16T15:08:31;15.60;99.90
13049;DHT22;6591;51.446;5.404;2023-04-16T15:10:58;15.60;99.90
13049;DHT22;6591;51.446;5.404;2023-04-16T15:13:25;15.60;99.90
13049;DHT22;6591;51.446;5.404;2023-04-16T15:15:59;15.60;99.90
13049;DHT22;6591;51.446;5.404;2023-04-16T15:18:33;16.40;99.90
13049;DHT22;6591;51.446;5.404;2023-04-16T15:21:00;15.50;99.90
13049;DHT22;6591;51.446;5.404;2023-04-16T15:23:27;15.50;99.90
13049;DHT22;6591;51.446;5.404;2023-04-16T15:25:54;17.00;99.90
13049;DHT22;6591;51.446;5.404;2023-04-16T15:28:21;15.50;99.90
13049;DHT22;6591;51.446;5.404;2023-04-16T15:30:48;15.40;99.90
13049;DHT22;6591;51.446;5.404;2023-04-16T15:33:15;17.50;99.90
13049;DHT22;6591;51.446;5.404;2023-04-16T15:35:42;15.60;99.90
13049;DHT22;6591;51.446;5.404;2023-04-16T15:38:09;15.50;99.90
13049;DHT22;6591;51.446;5.404;2023-04-16T15:40:36;15.60;99.90
13049;DHT22;6591;51.446;5.404;2023-04-16T15:43:05;15.60;99.90
13049;DHT22;6591;51.446;5.404;2023-04-16T15:45:32;15.60;99.90
13049;DHT22;6591;51.446;5.404;2023-04-16T15:47:59;15.60;99.90
13049;DHT22;6591;51.446;5.404;2023-04-16T15:50:26;15.70;99.90
13049;DHT22;6591;51.446;5.404;2023-04-16T15:52:53;15.70;99.90
13049;DHT22;6591;51.446;5.404;2023-04-16T15:55:20;15.70;99.90
13049;DHT22;6591;51.446;5.404;2023-04-16T15:57:48;15.60;99.90
13049;DHT22;6591;51.446;5.404;2023-04-16T16:00:15;15.70;99.90